Time;durP1;ratioP1;P1;durP2;ratioP2;P2;SDS_P1;SDS_P2;PMS_P1;PMS_P2;Temp;Humidity;BMP_temperature;BMP_pressure;BME280_temperature;BME280_humidity;BME280_pressure;Samples;Min_cycle;Max_cycle;Signal;HPM_P1;HPM_P2
2021/05/22 00:00:09;;;;;;;6.83;1.17;;;;;;;10.21;66.28;99521.20;128447;1101;62268;-78
2021/05/22 00:02:36;;;;;;;2.87;0.80;;;;;;;10.23;66.33;99513.05;128393;1101;62443;-78
2021/05/22 00:05:05;;;;;;;3.47;0.97;;;;;;;10.28;65.93;99512.45;128434;1101;62852;-78
2021/05/22 00:07:32;;;;;;;4.17;1.23;;;;;;;10.32;65.70;99513.70;128451;1101;62250;-78
2021/05/22 00:09:59;;;;;;;5.10;1.73;;;;;;;10.34;65.94;99499.23;128455;1101;62329;-78
2021/05/22 00:12:26;;;;;;;3.73;0.90;;;;;;;10.37;65.22;99488.23;128461;1101;62050;-78
2021/05/22 00:14:54;;;;;;;3.33;0.97;;;;;;;10.39;65.17;99478.25;128445;1101;61918;-79
2021/05/22 00:17:21;;;;;;;1.83;0.80;;;;;;;10.41;64.55;99478.02;128475;1101;62449;-78
2021/05/22 00:19:48;;;;;;;3.10;0.70;;;;;;;10.42;64.77;99484.16;128466;1101;64140;-78
2021/05/22 00:22:15;;;;;;;1.90;0.60;;;;;;;10.43;64.45;99480.48;128422;1101;62134;-79
2021/05/22 00:24:42;;;;;;;2.13;0.80;;;;;;;10.43;64.33;99483.94;128507;1101;62068;-79
2021/05/22 00:27:09;;;;;;;2.60;1.10;;;;;;;10.43;64.22;99481.28;128471;1101;62836;-79
2021/05/22 00:29:36;;;;;;;3.63;1.10;;;;;;;10.42;64.69;99484.16;128487;1101;62067;-79
2021/05/22 00:32:04;;;;;;;1.07;0.50;;;;;;;10.40;64.20;99482.52;128404;1101;62060;-79
2021/05/22 00:34:31;;;;;;;3.43;0.93;;;;;;;10.38;64.46;99476.59;128452;1101;62410;-79
2021/05/22 00:36:58;;;;;;;2.93;0.80;;;;;;;10.37;64.57;99476.80;128486;1101;62050;-79
2021/05/22 00:39:25;;;;;;;3.07;1.27;;;;;;;10.35;64.74;99478.86;128437;1101;61751;-78
2021/05/22 00:41:52;;;;;;;5.23;1.00;;;;;;;10.35;64.15;99484.16;128198;1102;62315;-79
2021/05/22 00:44:19;;;;;;;4.07;0.73;;;;;;;10.39;64.34;99485.36;128429;1101;63098;-79
2021/05/22 00:46:46;;;;;;;1.80;0.70;;;;;;;10.44;63.75;99484.77;128473;1101;62019;-79
2021/05/22 00:49:13;;;;;;;4.70;0.90;;;;;;;10.49;63.21;99485.77;128467;1101;62016;-79
2021/05/22 00:51:40;;;;;;;3.47;1.03;;;;;;;10.54;63.48;99491.30;128478;1101;62296;-80
2021/05/22 00:54:07;;;;;;;5.40;1.33;;;;;;;10.57;63.27;99493.53;128452;1101;62858;-80
2021/05/22 00:56:35;;;;;;;2.73;0.70;;;;;;;10.57;62.63;99488.23;128431;1101;62246;-78
2021/05/22 00:59:02;;;;;;;1.37;0.50;;;;;;;10.56;63.19;99494.56;128465;1101;62371;-78
2021/05/22 01:01:29;;;;;;;1.90;0.80;;;;;;;10.51;63.71;99486.39;128432;1101;62005;-78
2021/05/22 01:03:56;;;;;;;2.77;1.07;;;;;;;10.50;63.20;99482.13;128505;1101;62293;-79
2021/05/22 01:06:23;;;;;;;1.87;0.67;;;;;;;10.48;63.81;99483.35;128438;1101;63412;-79
2021/05/22 01:08:52;;;;;;;3.97;1.17;;;;;;;10.44;64.15;99480.28;128441;1101;62111;-78
2021/05/22 01:11:23;;;;;;;5.63;1.00;;;;;;;10.41;63.87;99478.02;128443;1101;62281;-78
2021/05/22 01:13:59;;;;;;;3.67;1.00;;;;;;;10.36;64.31;99473.33;128451;1101;62016;-78
2021/05/22 01:16:27;;;;;;;3.83;1.10;;;;;;;10.34;64.70;99471.91;128490;1101;62230;-79
2021/05/22 01:18:55;;;;;;;4.00;0.77;;;;;;;10.31;63.80;99467.84;128434;1101;62316;-79
2021/05/22 01:21:23;;;;;;;4.13;0.70;;;;;;;10.29;64.63;99469.03;128427;1101;62249;-79
2021/05/22 01:24:12;;;;;;;3.93;0.60;;;;;;;10.24;64.88;99471.46;128415;1101;62238;-78
2021/05/22 01:26:40;;;;;;;2.80;0.73;;;;;;;10.21;64.78;99476.14;128460;1101;63914;-79
2021/05/22 01:29:09;;;;;;;2.50;0.90;;;;;;;10.18;64.38;99471.27;128395;1101;62190;-78
2021/05/22 01:31:36;;;;;;;2.93;0.87;;;;;;;10.15;64.28;99469.00;128454;1101;62005;-78
2021/05/22 01:34:03;;;;;;;3.97;0.87;;;;;;;10.11;64.67;99461.66;128425;1101;62264;-78
2021/05/22 01:36:30;;;;;;;6.23;1.00;;;;;;;10.07;65.00;99471.84;128466;1101;62111;-79
2021/05/22 01:38:57;;;;;;;2.10;0.80;;;;;;;10.05;65.61;99479.20;128414;1101;62284;-79
2021/05/22 01:41:25;;;;;;;2.47;0.80;;;;;;;10.03;65.50;99478.59;128417;1101;62587;-79
2021/05/22 01:43:56;;;;;;;4.30;0.90;;;;;;;10.02;65.56;99481.42;128382;1101;62327;-79
2021/05/22 01:46:25;;;;;;;3.13;0.80;;;;;;;10.02;65.39;99479.59;128351;1101;62323;-79
2021/05/22 01:48:53;;;;;;;2.77;0.70;;;;;;;10.00;65.60;99478.97;128408;1101;62775;-79
2021/05/22 01:51:24;;;;;;;4.37;0.90;;;;;;;9.98;65.13;99487.11;128442;1101;62330;-79
2021/05/22 01:53:52;;;;;;;2.03;0.60;;;;;;;9.94;65.37;99483.23;128431;1101;62882;-80
2021/05/22 01:56:20;;;;;;;3.83;0.90;;;;;;;9.93;65.08;99486.10;128434;1101;62200;-79
2021/05/22 01:58:48;;;;;;;2.50;0.70;;;;;;;9.91;65.14;99483.64;128291;1101;62291;-79
2021/05/22 02:01:15;;;;;;;5.10;0.93;;;;;;;9.87;65.83;99479.76;128417;1101;62277;-81
2021/05/22 02:03:47;;;;;;;3.57;0.70;;;;;;;9.84;66.09;99476.69;128438;1101;63204;-80
2021/05/22 02:06:24;;;;;;;2.60;0.87;;;;;;;9.78;65.29;99457.95;128435;1101;62389;-80
2021/05/22 02:08:58;;;;;;;3.67;0.87;;;;;;;9.74;65.95;99464.66;128413;1101;62202;-80
2021/05/22 02:11:28;;;;;;;4.20;1.03;;;;;;;9.69;66.11;99467.09;128428;1101;62382;-79
2021/05/22 02:13:58;;;;;;;1.33;0.67;;;;;;;9.63;66.13;99462.59;128440;1101;63026;-79
2021/05/22 02:16:28;;;;;;;3.83;0.77;;;;;;;9.59;66.28;99472.75;128377;1101;63747;-79
2021/05/22 02:18:58;;;;;;;5.33;0.93;;;;;;;9.55;66.46;99473.35;128422;1101;62810;-79
2021/05/22 02:21:29;;;;;;;2.77;0.60;;;;;;;9.55;66.24;99478.65;128426;1101;62825;-79
2021/05/22 02:23:57;;;;;;;2.07;0.87;;;;;;;9.54;66.33;99474.35;128383;1101;63097;-80
2021/05/22 02:26:27;;;;;;;4.03;0.90;;;;;;;9.55;65.72;99471.52;128385;1101;62575;-78
2021/05/22 02:28:57;;;;;;;2.00;1.10;;;;;;;9.57;66.30;99466.84;128386;1101;62363;-78
2021/05/22 02:31:28;;;;;;;3.30;0.70;;;;;;;9.62;66.14;99468.89;128384;1101;62449;-79
2021/05/22 02:33:58;;;;;;;2.47;0.87;;;;;;;9.68;65.73;99467.28;128452;1101;62908;-78
2021/05/22 02:36:26;;;;;;;2.97;0.70;;;;;;;9.71;65.13;99467.71;128342;1101;62479;-78
2021/05/22 02:38:53;;;;;;;2.33;0.50;;;;;;;9.73;65.40;99468.33;128408;1101;63164;-78
2021/05/22 02:41:22;;;;;;;2.67;0.60;;;;;;;9.74;64.83;99467.30;128367;1101;62220;-78
2021/05/22 02:43:53;;;;;;;1.90;0.57;;;;;;;9.71;65.02;99470.36;128415;1101;62352;-78
2021/05/22 02:46:23;;;;;;;3.10;0.60;;;;;;;9.71;65.20;99477.47;128353;1101;62747;-78
2021/05/22 02:48:54;;;;;;;2.87;0.50;;;;;;;9.71;65.20;99470.36;128386;1101;62730;-78
2021/05/22 02:51:24;;;;;;;6.63;0.83;;;;;;;9.71;65.41;99461.58;128370;1101;62416;-78
2021/05/22 02:53:58;;;;;;;;;;;;;;;9.71;65.15;99467.71;128458;1101;62436;-78
2021/05/22 02:56:26;;;;;;;1.70;0.70;;;;;;;9.72;65.18;99468.52;128303;1101;62239;-78
2021/05/22 02:58:55;;;;;;;3.33;0.70;;;;;;;9.70;65.96;99465.26;128363;1101;62353;-78
2021/05/22 03:01:24;;;;;;;1.87;0.63;;;;;;;9.66;65.86;99467.47;128360;1101;63242;-79
2021/05/22 03:03:54;;;;;;;4.20;0.67;;;;;;;9.62;65.89;99471.53;128348;1101;63098;-79
2021/05/22 03:06:23;;;;;;;2.10;0.50;;;;;;;9.58;66.34;99467.65;128367;1101;62702;-78
2021/05/22 03:08:51;;;;;;;2.77;1.37;;;;;;;9.53;66.61;99470.09;128399;1101;62229;-78
2021/05/22 03:11:20;;;;;;;1.67;0.70;;;;;;;9.45;66.86;99476.36;128396;1101;62901;-79
2021/05/22 03:13:47;;;;;;;4.77;0.70;;;;;;;9.41;67.06;99477.77;128348;1101;63936;-80
2021/05/22 03:16:15;;;;;;;2.87;0.70;;;;;;;9.23;67.60;99459.78;128357;1101;62042;-79
2021/05/22 03:18:42;;;;;;;0.73;0.30;;;;;;;9.35;67.56;99481.20;128425;1101;62274;-78
2021/05/22 03:21:11;;;;;;;2.20;0.47;;;;;;;9.34;67.56;99476.93;128367;1101;62582;-79
2021/05/22 03:23:39;;;;;;;1.40;0.40;;;;;;;9.33;68.39;99477.95;128422;1101;63035;-79
2021/05/22 03:26:07;;;;;;;2.27;0.60;;;;;;;9.31;68.42;99472.85;128360;1101;62196;-78
2021/05/22 03:28:34;;;;;;;3.97;1.13;;;;;;;9.31;68.42;99477.34;128381;1101;62422;-79
2021/05/22 03:31:01;;;;;;;1.43;0.43;;;;;;;9.30;68.23;99471.20;128378;1101;62101;-78
2021/05/22 03:33:28;;;;;;;1.93;0.50;;;;;;;9.29;68.69;99480.17;128365;1101;62111;-78
2021/05/22 03:35:55;;;;;;;3.70;0.57;;;;;;;9.27;68.42;99473.45;128397;1101;62137;-78
2021/05/22 03:38:22;;;;;;;1.67;0.60;;;;;;;9.25;69.11;99470.98;128354;1102;62614;-78
2021/05/22 03:40:50;;;;;;;3.47;0.60;;;;;;;9.23;69.22;99470.37;128416;1101;62425;-79
2021/05/22 03:43:17;;;;;;;2.20;0.83;;;;;;;9.21;69.65;99469.74;128405;1101;62151;-78
2021/05/22 03:45:44;;;;;;;2.00;0.50;;;;;;;9.18;69.27;99467.51;128437;1101;62019;-78
2021/05/22 03:48:11;;;;;;;3.83;0.60;;;;;;;9.17;69.40;99471.95;128422;1101;62000;-78
2021/05/22 03:50:38;;;;;;;3.80;0.50;;;;;;;9.18;69.23;99478.09;128409;1101;62043;-78
2021/05/22 03:53:05;;;;;;;0.60;0.37;;;;;;;9.15;69.86;99467.88;128395;1101;63404;-76
2021/05/22 03:55:32;;;;;;;2.50;0.73;;;;;;;9.16;69.99;99480.11;128397;1101;62083;-77
2021/05/22 03:57:59;;;;;;;1.10;0.50;;;;;;;9.14;69.70;99477.66;128389;1101;62366;-76
2021/05/22 04:00:26;;;;;;;3.23;0.60;;;;;;;9.14;70.01;99468.91;128394;1101;63673;-76
2021/05/22 04:02:53;;;;;;;3.33;0.47;;;;;;;9.14;70.14;99460.97;128397;1101;64220;-76
2021/05/22 04:05:21;;;;;;;2.33;0.60;;;;;;;9.14;70.30;99471.55;128419;1101;62861;-76
2021/05/22 04:07:48;;;;;;;1.67;0.60;;;;;;;9.13;70.96;99472.55;128389;1101;62375;-76
2021/05/22 04:10:15;;;;;;;1.10;0.20;;;;;;;9.14;70.17;99471.55;128430;1101;62278;-78
2021/05/22 04:12:42;;;;;;;1.03;0.40;;;;;;;9.13;70.92;99475.20;128379;1101;62907;-77
2021/05/22 04:15:09;;;;;;;2.20;0.30;;;;;;;9.12;70.78;99468.28;128373;1101;62335;-77
2021/05/22 04:17:36;;;;;;;1.47;0.30;;;;;;;9.14;70.92;99469.72;128433;1101;62807;-77
2021/05/22 04:20:04;;;;;;;2.43;0.60;;;;;;;9.17;70.52;99476.44;128397;1101;62405;-77
2021/05/22 04:22:31;;;;;;;1.27;0.87;;;;;;;9.19;70.69;99474.42;128401;1101;62167;-76
2021/05/22 04:24:58;;;;;;;0.40;0.30;;;;;;;9.23;70.64;99488.08;128432;1101;63319;-76
2021/05/22 04:27:25;;;;;;;3.23;0.80;;;;;;;9.24;70.75;99481.77;128389;1101;62266;-76
2021/05/22 04:29:52;;;;;;;0.80;0.40;;;;;;;9.25;70.77;99478.12;128420;1101;62099;-76
2021/05/22 04:32:19;;;;;;;2.43;0.50;;;;;;;9.25;71.31;99473.63;128389;1101;62282;-76
2021/05/22 04:34:46;;;;;;;2.07;0.50;;;;;;;9.24;71.03;99481.77;128427;1101;62162;-76
2021/05/22 04:37:13;;;;;;;2.43;0.43;;;;;;;9.26;70.75;99480.55;128375;1101;62885;-77
2021/05/22 04:39:40;;;;;;;3.00;0.60;;;;;;;9.31;70.96;99483.44;128408;1101;61937;-76
2021/05/22 04:42:07;;;;;;;3.40;0.70;;;;;;;9.34;70.76;99492.81;127631;1101;64218;-78
2021/05/22 04:44:34;;;;;;;3.50;0.65;;;;;;;9.37;71.49;99482.66;128409;1101;62273;-77
2021/05/22 04:47:01;;;;;;;1.55;0.60;;;;;;;9.43;71.26;99501.39;128443;1101;62322;-77
2021/05/22 04:49:28;;;;;;;2.30;0.60;;;;;;;9.48;71.04;99480.44;128439;1101;62460;-77
2021/05/22 04:51:56;;;;;;;2.57;0.63;;;;;;;9.54;70.61;99471.70;128363;1101;62186;-76
2021/05/22 04:54:23;;;;;;;2.30;0.30;;;;;;;9.58;70.50;99476.44;128423;1101;62384;-77
2021/05/22 04:56:50;;;;;;;1.77;0.60;;;;;;;9.66;70.51;99472.77;128405;1101;62072;-77
2021/05/22 04:59:18;;;;;;;2.03;0.50;;;;;;;9.75;70.08;99473.41;128418;1101;62044;-78
2021/05/22 05:01:46;;;;;;;1.13;0.30;;;;;;;9.83;69.71;99475.06;128376;1101;62131;-76
2021/05/22 05:04:13;;;;;;;2.20;0.80;;;;;;;9.88;69.44;99473.46;128401;1101;62729;-78
2021/05/22 05:06:40;;;;;;;1.07;0.40;;;;;;;9.94;69.51;99471.83;128402;1101;62084;-79
2021/05/22 05:09:07;;;;;;;1.00;0.30;;;;;;;10.03;68.80;99475.94;128419;1101;62298;-79
2021/05/22 05:11:34;;;;;;;0.90;0.53;;;;;;;10.08;69.29;99473.48;128417;1101;62034;-79
2021/05/22 05:14:02;;;;;;;2.63;0.70;;;;;;;10.17;69.63;99477.56;128326;1101;62881;-78
2021/05/22 05:16:29;;;;;;;1.57;0.50;;;;;;;10.26;68.97;99475.53;128298;1101;62294;-78
2021/05/22 05:18:56;;;;;;;1.20;0.60;;;;;;;10.32;68.40;99476.59;128375;1101;62222;-78
2021/05/22 05:21:23;;;;;;;2.53;0.80;;;;;;;10.39;69.18;99480.06;128368;1101;62629;-78
2021/05/22 05:23:50;;;;;;;1.83;0.70;;;;;;;10.47;67.92;99479.05;128392;1101;62138;-79
2021/05/22 05:26:17;;;;;;;2.97;1.10;;;;;;;10.55;68.50;99473.55;128366;1101;62650;-78
2021/05/22 05:28:45;;;;;;;3.37;1.40;;;;;;;10.57;67.54;99477.62;128373;1101;63067;-79
2021/05/22 05:31:12;;;;;;;1.47;0.40;;;;;;;10.64;67.74;99487.41;128402;1101;62084;-78
2021/05/22 05:33:39;;;;;;;2.23;0.60;;;;;;;10.70;67.55;99482.09;128407;1101;62237;-79
2021/05/22 05:36:06;;;;;;;5.43;0.87;;;;;;;10.80;67.05;99476.39;128439;1101;62184;-78
2021/05/22 05:38:33;;;;;;;4.10;1.03;;;;;;;10.88;66.17;99462.91;128355;1101;64312;-78
2021/05/22 05:41:00;;;;;;;1.50;0.43;;;;;;;10.95;66.51;99479.63;128260;1101;62531;-77
2021/05/22 05:43:27;;;;;;;1.37;0.67;;;;;;;11.03;66.04;99470.64;128358;1101;62377;-76
2021/05/22 05:45:55;;;;;;;2.20;0.70;;;;;;;11.10;64.56;99475.92;128367;1101;62088;-77
2021/05/22 05:48:22;;;;;;;1.77;0.60;;;;;;;11.18;64.84;99473.05;128410;1101;62401;-77
2021/05/22 05:50:49;;;;;;;3.37;0.70;;;;;;;11.26;63.70;99474.63;128386;1101;62391;-76
2021/05/22 05:53:17;;;;;;;2.53;0.60;;;;;;;11.37;64.47;99464.19;128341;1101;62250;-77
2021/05/22 05:55:45;;;;;;;5.93;0.87;;;;;;;11.48;64.48;99464.56;128361;1101;62394;-76
2021/05/22 05:58:12;;;;;;;3.33;0.70;;;;;;;11.58;64.14;99462.25;128388;1101;62343;-77
2021/05/22 06:00:40;;;;;;;4.00;0.70;;;;;;;11.65;62.74;99468.36;128391;1101;62108;-77
2021/05/22 06:03:07;;;;;;;4.37;0.77;;;;;;;11.75;62.88;99468.72;128387;1101;62284;-77
2021/05/22 06:05:34;;;;;;;3.50;0.60;;;;;;;11.80;62.23;99468.89;128397;1101;62535;-76
2021/05/22 06:08:01;;;;;;;2.27;0.70;;;;;;;11.90;61.57;99464.97;128358;1101;62625;-77
2021/05/22 06:10:28;;;;;;;2.27;0.93;;;;;;;12.05;60.56;99478.80;128391;1101;62232;-77
2021/05/22 06:12:56;;;;;;;4.67;0.90;;;;;;;12.22;60.12;99485.22;128362;1101;62414;-77
2021/05/22 06:15:30;;;;;;;3.53;0.70;;;;;;;12.33;58.12;99488.23;128393;1101;62286;-76
2021/05/22 06:17:57;;;;;;;1.33;0.40;;;;;;;12.31;58.26;99491.09;128327;1101;63103;-77
2021/05/22 06:20:26;;;;;;;3.83;0.70;;;;;;;12.29;57.49;99463.09;128376;1101;62538;-76
2021/05/22 06:22:53;;;;;;;2.80;0.70;;;;;;;12.27;56.76;99463.30;128407;1101;62176;-76
2021/05/22 06:25:20;;;;;;;4.63;1.20;;;;;;;12.33;57.56;99466.95;128395;1101;62022;-79
2021/05/22 06:27:47;;;;;;;2.30;0.93;;;;;;;12.43;57.02;99469.91;128368;1101;62566;-78
2021/05/22 06:30:15;;;;;;;3.17;0.70;;;;;;;12.50;56.61;99485.84;128380;1101;62598;-79
2021/05/22 06:32:42;;;;;;;5.80;0.80;;;;;;;12.61;56.84;99472.63;128391;1101;62642;-79
2021/05/22 06:35:10;;;;;;;3.23;0.60;;;;;;;12.73;54.65;99479.89;128399;1101;62722;-79
2021/05/22 06:37:37;;;;;;;3.60;1.53;;;;;;;12.82;54.72;99470.61;128386;1101;61804;-79
2021/05/22 06:40:05;;;;;;;2.40;1.07;;;;;;;12.89;54.33;99462.56;128398;1101;62343;-79
2021/05/22 06:42:33;;;;;;;2.80;0.80;;;;;;;12.91;54.31;99487.11;128385;1101;62420;-79
2021/05/22 06:45:08;;;;;;;1.65;0.60;;;;;;;12.89;54.62;99474.02;128433;1101;62365;-79
2021/05/22 06:47:35;;;;;;;2.13;0.58;;;;;;;12.87;54.36;99500.03;128430;1101;62217;-79
2021/05/22 06:50:03;;;;;;;5.00;0.80;;;;;;;12.79;54.48;99479.02;128414;1101;62601;-79
2021/05/22 06:52:31;;;;;;;1.63;0.53;;;;;;;12.75;55.24;99483.15;128375;1101;62549;-75
2021/05/22 06:54:59;;;;;;;4.33;0.70;;;;;;;12.78;55.34;99477.41;128640;1101;62379;-75
2021/05/22 06:57:26;;;;;;;8.17;2.87;;;;;;;12.76;55.25;99490.12;128672;1101;62854;-75
2021/05/22 06:59:53;;;;;;;3.47;0.90;;;;;;;12.74;54.69;99482.34;128490;1101;62423;-76
2021/05/22 07:02:20;;;;;;;5.93;0.60;;;;;;;12.73;54.63;99477.23;128380;1101;62223;-75
2021/05/22 07:04:47;;;;;;;4.57;0.90;;;;;;;12.79;54.56;99471.88;128403;1101;62804;-76
2021/05/22 07:07:14;;;;;;;6.90;1.27;;;;;;;12.83;53.80;99490.86;128349;1101;62390;-75
2021/05/22 07:09:42;;;;;;;3.33;1.00;;;;;;;12.94;54.02;99466.20;128360;1101;62213;-75
2021/05/22 07:12:12;;;;;;;2.87;0.97;;;;;;;13.04;53.58;99463.81;128368;1101;62304;-76
2021/05/22 07:14:39;;;;;;;4.27;0.87;;;;;;;13.06;53.42;99469.73;128392;1101;62200;-75
2021/05/22 07:17:06;;;;;;;2.63;0.80;;;;;;;13.06;53.76;99463.60;128381;1101;62250;-76
2021/05/22 07:19:33;;;;;;;4.80;0.80;;;;;;;13.05;52.94;99457.47;128330;1101;62398;-75
2021/05/22 07:22:00;;;;;;;3.23;1.10;;;;;;;13.08;53.89;99471.38;128388;1101;62476;-76
2021/05/22 07:24:27;;;;;;;4.30;0.70;;;;;;;13.00;53.57;99469.80;128357;1101;62086;-76
2021/05/22 07:26:56;;;;;;;4.33;0.80;;;;;;;12.96;54.08;99480.10;128377;1101;61922;-76
2021/05/22 07:29:24;;;;;;;4.27;0.60;;;;;;;12.96;54.31;99469.45;128382;1101;62306;-76
2021/05/22 07:31:52;;;;;;;4.20;0.80;;;;;;;12.90;54.51;99478.32;128116;1102;62507;-76
2021/05/22 07:34:24;;;;;;;4.27;0.93;;;;;;;12.77;54.75;99473.94;128349;1101;62390;-76
2021/05/22 07:36:51;;;;;;;5.03;0.90;;;;;;;12.75;55.38;99480.48;128369;1101;62353;-76
2021/05/22 07:39:18;;;;;;;2.27;0.60;;;;;;;12.77;55.21;99468.61;128376;1101;62406;-75
2021/05/22 07:41:46;;;;;;;3.45;0.60;;;;;;;12.83;55.39;99466.91;128375;1101;62072;-76
2021/05/22 07:44:14;;;;;;;1.00;0.50;;;;;;;12.84;55.38;99474.67;128316;1101;62140;-76
2021/05/22 07:46:42;;;;;;;2.47;0.97;;;;;;;12.86;55.05;99469.14;128408;1101;62156;-76
2021/05/22 07:49:10;;;;;;;3.10;0.87;;;;;;;12.87;55.02;99470.76;128408;1101;63652;-76
2021/05/22 07:51:39;;;;;;;3.23;1.03;;;;;;;12.86;55.10;99469.14;128396;1101;62092;-76
2021/05/22 07:54:07;;;;;;;5.50;0.70;;;;;;;12.83;55.45;99490.86;128400;1101;63290;-75
2021/05/22 07:56:35;;;;;;;4.80;0.53;;;;;;;12.89;55.43;99479.34;128410;1101;62334;-75
2021/05/22 07:59:02;;;;;;;3.30;0.73;;;;;;;13.03;55.12;99488.02;128341;1101;62116;-76
2021/05/22 08:01:30;;;;;;;2.77;0.80;;;;;;;13.08;54.54;99479.36;128359;1101;62358;-76
2021/05/22 08:03:57;;;;;;;5.23;0.83;;;;;;;13.14;55.42;99473.96;128347;1101;62269;-75
2021/05/22 08:06:24;;;;;;;2.80;0.63;;;;;;;13.19;54.91;99465.30;128366;1101;62001;-75
2021/05/22 08:08:51;;;;;;;6.50;0.80;;;;;;;13.21;55.20;99469.36;128312;1101;62198;-76
2021/05/22 08:11:18;;;;;;;3.40;0.70;;;;;;;13.30;54.58;99469.91;128380;1101;62440;-76
2021/05/22 08:13:45;;;;;;;2.57;0.70;;;;;;;13.31;54.52;99471.55;128369;1101;62403;-76
2021/05/22 08:16:12;;;;;;;4.60;0.73;;;;;;;13.39;54.75;99468.59;128393;1101;62372;-76
2021/05/22 08:18:39;;;;;;;4.50;0.90;;;;;;;13.52;54.10;99467.62;128318;1101;62805;-76
2021/05/22 08:21:06;;;;;;;4.17;0.70;;;;;;;13.61;53.94;99462.78;128310;1101;62392;-77
2021/05/22 08:23:34;;;;;;;2.90;0.77;;;;;;;13.67;53.78;99469.89;128277;1101;62926;-76
2021/05/22 08:26:01;;;;;;;4.00;1.33;;;;;;;13.79;52.89;99467.25;128301;1101;62193;-76
2021/05/22 08:28:48;;;;;;;5.20;0.90;;;;;;;13.92;52.99;99455.59;128311;1101;62957;-76
2021/05/22 08:31:15;;;;;;;2.10;0.83;;;;;;;14.05;51.11;99460.75;128266;1101;62569;-76
2021/05/22 08:33:43;;;;;;;3.53;0.83;;;;;;;14.10;52.16;99450.20;128270;1101;62144;-76
2021/05/22 08:36:10;;;;;;;4.70;0.70;;;;;;;14.15;52.08;99502.84;128323;1101;62350;-76
2021/05/22 08:38:38;;;;;;;4.87;0.80;;;;;;;14.01;51.10;99462.24;128142;1101;62268;-76
2021/05/22 08:41:06;;;;;;;4.40;1.10;;;;;;;13.84;51.91;99454.88;128277;1102;62034;-76
2021/05/22 08:43:34;;;;;;;7.50;0.70;;;;;;;13.79;52.54;99462.76;128402;1101;62874;-75
2021/05/22 08:46:06;;;;;;;4.33;0.63;;;;;;;13.61;52.35;99465.45;128338;1101;62048;-75
2021/05/22 08:48:34;;;;;;;1.80;0.87;;;;;;;13.51;52.05;99475.83;128385;1101;62553;-75
2021/05/22 08:51:01;;;;;;;2.87;0.50;;;;;;;13.39;52.22;99473.92;128398;1101;62014;-75
2021/05/22 08:53:29;;;;;;;2.97;0.80;;;;;;;13.30;53.15;99469.10;128405;1101;62166;-75
2021/05/22 08:55:56;;;;;;;2.13;0.70;;;;;;;13.22;53.71;99473.67;128378;1101;62446;-74
2021/05/22 08:58:23;;;;;;;2.50;0.60;;;;;;;13.10;54.42;99470.11;128345;1101;62334;-74
2021/05/22 09:00:50;;;;;;;3.17;0.90;;;;;;;12.93;56.24;99483.19;128351;1101;62802;-75
2021/05/22 09:03:17;;;;;;;3.03;0.70;;;;;;;12.67;58.77;99504.73;128367;1101;62949;-76
2021/05/22 09:05:45;;;;;;;6.67;0.83;;;;;;;12.34;62.34;99519.09;128360;1101;62464;-76
2021/05/22 09:08:17;;;;;;;4.87;0.80;;;;;;;12.09;64.29;99511.06;128399;1101;62474;-76
2021/05/22 09:10:49;;;;;;;3.07;0.70;;;;;;;11.84;66.20;99517.92;128396;1101;62210;-75
2021/05/22 09:13:25;;;;;;;2.40;0.73;;;;;;;11.66;64.20;99528.41;128400;1101;62345;-75
2021/05/22 09:16:03;;;;;;;3.13;0.80;;;;;;;11.60;64.88;99503.53;128356;1101;62546;-73
2021/05/22 09:18:36;;;;;;;3.10;0.83;;;;;;;11.55;65.90;99519.27;128337;1101;61912;-73
2021/05/22 09:21:09;;;;;;;2.27;0.70;;;;;;;11.52;66.53;99517.05;128345;1101;62363;-74
2021/05/22 09:23:39;;;;;;;2.73;0.60;;;;;;;11.52;65.80;99516.23;128396;1101;62400;-74
2021/05/22 09:26:14;;;;;;;3.70;0.60;;;;;;;11.50;65.52;99519.09;128393;1101;62319;-73
2021/05/22 09:28:46;;;;;;;;;;;;;;;11.49;65.74;99521.95;128358;1101;63652;-73
2021/05/22 09:31:23;;;;;;;2.17;0.50;;;;;;;11.53;64.56;99525.82;128362;1101;62644;-73
2021/05/22 09:33:59;;;;;;;3.60;0.87;;;;;;;11.65;63.84;99529.45;128349;1101;62254;-73
2021/05/22 09:36:26;;;;;;;1.40;0.50;;;;;;;11.80;62.67;99530.00;128381;1101;62171;-74
2021/05/22 09:38:56;;;;;;;3.50;0.80;;;;;;;11.95;62.18;99532.41;128352;1101;63138;-73
2021/05/22 09:41:33;;;;;;;2.83;0.87;;;;;;;12.07;61.46;99515.78;128393;1101;62086;-73
2021/05/22 09:44:25;;;;;;;2.27;0.60;;;;;;;12.24;60.65;99514.27;128342;1101;62737;-74
2021/05/22 09:46:52;;;;;;;2.70;0.60;;;;;;;12.44;60.61;99511.45;128326;1101;63052;-74
2021/05/22 09:49:34;;;;;;;2.20;0.40;;;;;;;12.63;60.23;99507.81;128348;1101;62227;-73
2021/05/22 09:52:11;;;;;;;1.60;0.33;;;;;;;12.69;59.06;99510.63;128366;1101;62238;-74
2021/05/22 09:54:48;;;;;;;2.70;0.57;;;;;;;12.64;58.34;99524.59;128405;1101;62154;-74
2021/05/22 09:57:16;;;;;;;0.90;0.30;;;;;;;12.56;58.40;99538.98;128406;1095;62178;-74
2021/05/22 10:00:16;;;;;;;2.87;0.87;;;;;;;12.44;59.15;99532.73;128396;1101;62855;-75
2021/05/22 10:02:56;;;;;;;1.47;0.43;;;;;;;12.35;60.03;99518.88;128361;1101;62431;-75
2021/05/22 10:05:32;;;;;;;3.80;0.60;;;;;;;12.28;60.17;99526.07;128335;1101;62129;-74
2021/05/22 10:08:02;;;;;;;3.03;0.50;;;;;;;12.23;60.26;99526.72;128411;1101;62465;-73
2021/05/22 10:10:46;;;;;;;0.93;0.40;;;;;;;12.15;61.39;99531.48;128421;1101;62136;-74
2021/05/22 10:13:20;;;;;;;4.70;0.83;;;;;;;12.12;62.64;99522.09;128408;1101;61958;-74
2021/05/22 10:15:50;;;;;;;5.10;0.70;;;;;;;12.10;62.81;99529.47;128461;1101;62468;-74
2021/05/22 10:18:18;;;;;;;0.80;0.30;;;;;;;12.10;62.85;99529.47;128468;1101;62020;-73
2021/05/22 10:20:46;;;;;;;2.60;0.77;;;;;;;12.09;62.10;99524.36;128471;1101;62018;-73
2021/05/22 10:23:15;;;;;;;3.17;0.50;;;;;;;12.09;62.93;99543.80;128440;1101;62245;-74
2021/05/22 10:25:43;;;;;;;2.87;0.50;;;;;;;12.10;63.03;99531.31;128412;1101;62201;-74
2021/05/22 10:28:10;;;;;;;3.37;0.80;;;;;;;12.12;63.29;99532.73;128399;1101;62483;-73
2021/05/22 10:30:37;;;;;;;4.93;0.60;;;;;;;12.07;62.59;99551.17;128454;1101;62412;-74
2021/05/22 10:33:09;;;;;;;2.63;0.57;;;;;;;12.03;64.05;99584.52;128388;1101;63025;-75
2021/05/22 10:35:42;;;;;;;3.07;0.53;;;;;;;11.92;64.62;99554.11;128399;1102;62533;-75
2021/05/22 10:38:10;;;;;;;0.97;0.40;;;;;;;11.88;64.82;99562.66;128413;1101;62087;-75
2021/05/22 10:40:46;;;;;;;1.33;0.40;;;;;;;11.79;65.25;99570.05;128394;1101;62144;-75
2021/05/22 10:43:14;;;;;;;3.30;0.77;;;;;;;11.83;66.61;99577.39;128444;1101;62412;-75
2021/05/22 10:45:44;;;;;;;1.50;0.40;;;;;;;11.79;65.43;99589.49;128396;1101;62183;-75
2021/05/22 10:48:17;;;;;;;2.83;0.50;;;;;;;11.78;66.43;99585.19;128407;1101;62724;-75
2021/05/22 10:50:47;;;;;;;1.87;0.60;;;;;;;11.77;68.39;99594.20;128436;1101;63419;-76
2021/05/22 10:53:25;;;;;;;2.97;0.90;;;;;;;11.70;67.29;99588.08;128388;1101;63010;-76
2021/05/22 10:56:26;;;;;;;2.67;0.60;;;;;;;11.71;68.44;99573.78;128405;1101;62143;-75
2021/05/22 10:58:59;;;;;;;2.60;0.50;;;;;;;11.68;67.18;99606.06;128259;1101;62304;-76
2021/05/22 11:01:28;;;;;;;1.70;1.03;;;;;;;11.73;68.02;99587.67;128402;1101;62265;-75
2021/05/22 11:04:08;;;;;;;1.50;0.40;;;;;;;11.77;66.95;99593.36;128431;1101;62276;-75
2021/05/22 11:06:50;;;;;;;1.13;0.50;;;;;;;11.81;67.02;99592.73;128420;1101;62926;-75
2021/05/22 11:09:26;;;;;;;1.27;0.43;;;;;;;11.78;67.01;99595.81;128435;1101;62153;-75
2021/05/22 11:12:01;;;;;;;3.53;0.40;;;;;;;11.78;67.08;99579.88;127736;1101;64240;-75
2021/05/22 11:14:44;;;;;;;2.20;0.37;;;;;;;11.80;67.21;99567.20;128449;1101;62058;-75
2021/05/22 11:17:21;;;;;;;0.80;0.33;;;;;;;11.81;66.49;99574.13;128388;1101;62373;-74
2021/05/22 11:20:01;;;;;;;0.67;0.37;;;;;;;11.83;66.60;99587.21;127763;1101;64300;-75
2021/05/22 11:22:29;;;;;;;0.50;0.20;;;;;;;11.88;65.76;99605.17;127726;1101;62252;-74
2021/05/22 11:25:00;;;;;;;2.47;0.53;;;;;;;11.99;66.37;99584.12;128373;1101;62524;-74
2021/05/22 11:27:47;;;;;;;6.20;0.43;;;;;;;12.06;65.08;99591.25;128451;1101;62065;-75
2021/05/22 11:30:18;;;;;;;0.87;0.30;;;;;;;12.03;64.10;99592.49;128385;1101;62851;-74
2021/05/22 11:32:46;;;;;;;2.53;0.50;;;;;;;12.00;64.95;99603.53;128304;1101;62357;-74
2021/05/22 11:35:30;;;;;;;1.70;0.20;;;;;;;11.97;64.34;99604.77;127781;1101;64097;-75
2021/05/22 11:38:12;;;;;;;3.30;0.43;;;;;;;11.94;63.98;99594.58;128308;1101;62174;-74